Observation data for Floydada on 05/26/2019      Previous  Date  Next       Current Mesonet Observations  Soil Data  Daily Summary Page  Observations in Plain Language
KFLS 260500Z 16011KT 21/18 A2996 RMK A01 T02050181  RH  088%=      5-min Rain = 0
KFLS 260505Z 16011KT 21/18 A2996 RMK A01 T02050181  RH  088%=      5-min Rain = 0
KFLS 260510Z 16010KT 20/18 A2996 RMK A01 T02040181  RH  089%=      5-min Rain = 0
KFLS 260515Z 16009KT 20/18 A2996 RMK A01 T02030180  RH  089%=      5-min Rain = 0
KFLS 260520Z 16009KT 20/18 A2996 RMK A01 T02030180  RH  089%=      5-min Rain = 0
KFLS 260525Z 16010KT 20/18 A2996 RMK A01 T02030180  RH  089%=      5-min Rain = 0
KFLS 260530Z 16010KT 20/18 A2996 RMK A01 T02030180  RH  089%=      5-min Rain = 0
KFLS 260535Z 16010KT 20/18 A2996 RMK A01 T02030180  RH  089%=      5-min Rain = 0
KFLS 260540Z 16010KT 20/18 A2996 RMK A01 T02020180  RH  089%=      5-min Rain = 0
KFLS 260545Z 16011KT 20/18 A2996 RMK A01 T02020180  RH  089%=      5-min Rain = 0
KFLS 260550Z 16010KT 20/18 A2996 RMK A01 T02020179  RH  089%=      5-min Rain = 0
KFLS 260555Z 16010KT 20/18 A2996 RMK A01 T02020179  RH  089%=      5-min Rain = 0
KFLS 260600Z 16011KT 20/18 A2996 RMK A01 T02020179  RH  089%=      5-min Rain = 0
KFLS 260605Z 16010KT 20/18 A2996 RMK A01 T02010179  RH  089%=      5-min Rain = 0
KFLS 260610Z 16009KT 20/18 A2996 RMK A01 T02000179  RH  090%=      5-min Rain = 0
KFLS 260615Z 15009KT 20/18 A2996 RMK A01 T01990178  RH  090%=      5-min Rain = 0
KFLS 260620Z 15008KT 20/18 A2996 RMK A01 T01970177  RH  091%=      5-min Rain = 0
KFLS 260625Z 15008KT 20/18 A2996 RMK A01 T01950177  RH  092%=      5-min Rain = 0
KFLS 260630Z 16008KT 19/18 A2997 RMK A01 T01940177  RH  092%=      5-min Rain = 0
KFLS 260635Z 16008KT 19/18 A2997 RMK A01 T01940177  RH  092%=      5-min Rain = 0
KFLS 260640Z 16008KT 19/18 A2997 RMK A01 T01940177  RH  092%=      5-min Rain = 0
KFLS 260645Z 16008KT 19/18 A2997 RMK A01 T01940177  RH  092%=      5-min Rain = 0
KFLS 260650Z 16007KT 19/18 A2997 RMK A01 T01930177  RH  093%=      5-min Rain = 0
KFLS 260655Z 16007KT 19/18 A2997 RMK A01 T01920176  RH  093%=      5-min Rain = 0
KFLS 260700Z 15007KT 19/18 A2997 RMK A01 T01910176  RH  093%=      5-min Rain = 0
KFLS 260705Z 15007KT 19/18 A2997 RMK A01 T01900175  RH  093%=      5-min Rain = 0
KFLS 260710Z 15007KT 19/18 A2997 RMK A01 T01900175  RH  094%=      5-min Rain = 0
KFLS 260715Z 15006KT 19/17 A2997 RMK A01 T01880174  RH  094%=      5-min Rain = 0
KFLS 260720Z 14006KT 19/17 A2997 RMK A01 T01870174  RH  094%=      5-min Rain = 0
KFLS 260725Z 14006KT 19/17 A2997 RMK A01 T01860173  RH  094%=      5-min Rain = 0
KFLS 260730Z 13006KT 19/17 A2997 RMK A01 T01850172  RH  095%=      5-min Rain = 0
KFLS 260735Z 13005KT 18/17 A2997 RMK A01 T01830170  RH  095%=      5-min Rain = 0
KFLS 260740Z 12004KT 18/17 A2997 RMK A01 T01800168  RH  095%=      5-min Rain = 0
KFLS 260745Z 09004KT 18/17 A2997 RMK A01 T01760165  RH  095%=      5-min Rain = 0
KFLS 260750Z 09003KT 17/17 A2998 RMK A01 T01740165  RH  097%=      5-min Rain = 0
KFLS 260755Z 11003KT 17/17 A2998 RMK A01 T01740165  RH  097%=      5-min Rain = 0
KFLS 260800Z 13003KT 17/17 A2997 RMK A01 T01740166  RH  098%=      5-min Rain = 0
KFLS 260805Z 14004KT 18/17 A2997 RMK A01 T01750168  RH  098%=      5-min Rain = 0
KFLS 260810Z 15004KT 18/17 A2997 RMK A01 T01750168  RH  098%=      5-min Rain = 0
KFLS 260815Z 15004KT 17/17 A2997 RMK A01 T01730166  RH  098%=      5-min Rain = 0
KFLS 260820Z 15005KT 17/16 A2997 RMK A01 T01700163  RH  098%=      5-min Rain = 0
KFLS 260825Z 16006KT 17/17 A2997 RMK A01 T01740168  RH  099%=      5-min Rain = 0
KFLS 260830Z 16007KT 18/17 A2997 RMK A01 T01790173  RH  098%=      5-min Rain = 0
KFLS 260835Z 16008KT 18/17 A2997 RMK A01 T01820174  RH  097%=      5-min Rain = 0
KFLS 260840Z 16008KT 18/17 A2997 RMK A01 T01840173  RH  096%=      5-min Rain = 0
KFLS 260845Z 16007KT 18/17 A2997 RMK A01 T01830172  RH  095%=      5-min Rain = 0
KFLS 260850Z 16007KT 18/17 A2997 RMK A01 T01830171  RH  095%=      5-min Rain = 0
KFLS 260855Z 16008KT 18/17 A2997 RMK A01 T01840172  RH  095%=      5-min Rain = 0
KFLS 260900Z 16008KT 18/17 A2997 RMK A01 T01840172  RH  095%=      5-min Rain = 0
KFLS 260905Z 16008KT 18/17 A2997 RMK A01 T01840171  RH  095%=      5-min Rain = 0
KFLS 260910Z 16008KT 18/17 A2997 RMK A01 T01840172  RH  095%=      5-min Rain = 0
KFLS 260915Z 16008KT 19/17 A2997 RMK A01 T01850172  RH  094%=      5-min Rain = 0
KFLS 260920Z 16008KT 19/17 A2997 RMK A01 T01860172  RH  094%=      5-min Rain = 0
KFLS 260925Z 16008KT 19/17 A2997 RMK A01 T01860172  RH  094%=      5-min Rain = 0
KFLS 260930Z 16009KT 19/17 A2997 RMK A01 T01860172  RH  094%=      5-min Rain = 0
KFLS 260935Z 16009KT 19/17 A2997 RMK A01 T01860172  RH  094%=      5-min Rain = 0
KFLS 260940Z 16009KT 19/17 A2997 RMK A01 T01850172  RH  094%=      5-min Rain = 0
KFLS 260945Z 16010KT 19/17 A2997 RMK A01 T01860172  RH  094%=      5-min Rain = 0
KFLS 260950Z 16009KT 19/17 A2997 RMK A01 T01860172  RH  094%=      5-min Rain = 0
KFLS 260955Z 16009KT 19/17 A2997 RMK A01 T01860172  RH  094%=      5-min Rain = 0
KFLS 261000Z 16009KT 19/17 A2997 RMK A01 T01860172  RH  094%=      5-min Rain = 0
KFLS 261005Z 16009KT 19/17 A2998 RMK A01 T01860172  RH  094%=      5-min Rain = 0
KFLS 261010Z 16009KT 19/17 A2998 RMK A01 T01870174  RH  094%=      5-min Rain = 0
KFLS 261015Z 16010KT 19/18 A2998 RMK A01 T01890175  RH  094%=      5-min Rain = 0
KFLS 261020Z 16009KT 19/18 A2997 RMK A01 T01900176  RH  094%=      5-min Rain = 0
KFLS 261025Z 16010KT 19/18 A2997 RMK A01 T01900176  RH  094%=      5-min Rain = 0
KFLS 261030Z 16010KT 19/18 A2997 RMK A01 T01910177  RH  094%=      5-min Rain = 0
KFLS 261035Z 16010KT 19/18 A2997 RMK A01 T01910177  RH  094%=      5-min Rain = 0
KFLS 261040Z 15011KT 19/18 A2997 RMK A01 T01920178  RH  094%=      5-min Rain = 0
KFLS 261045Z 16011KT 19/18 A2998 RMK A01 T01920178  RH  094%=      5-min Rain = 0
KFLS 261050Z 16009KT 19/18 A2998 RMK A01 T01920178  RH  094%=      5-min Rain = 0
KFLS 261055Z 16009KT 19/18 A2998 RMK A01 T01920179  RH  094%=      5-min Rain = 0
KFLS 261100Z 16010KT 19/18 A2998 RMK A01 T01930179  RH  094%=      5-min Rain = 0
KFLS 261105Z 16010KT 19/18 A2998 RMK A01 T01930180  RH  094%=      5-min Rain = 0
KFLS 261110Z 16009KT 19/18 A2998 RMK A01 T01940180  RH  094%=      5-min Rain = 0
KFLS 261115Z 16010KT 19/18 A2999 RMK A01 T01940181  RH  094%=      5-min Rain = 0
KFLS 261120Z 16010KT 19/18 A2998 RMK A01 T01940181  RH  094%=      5-min Rain = 0
KFLS 261125Z 16011KT 19/18 A2998 RMK A01 T01940181  RH  095%=      5-min Rain = 0
KFLS 261130Z 16010G15KT 19/18 A2998 RMK A01 T01940181  RH  095%=      5-min Rain = 0
KFLS 261135Z 16010KT 19/18 A2999 RMK A01 T01940181  RH  095%=      5-min Rain = 0
KFLS 261140Z 16010KT 19/18 A2999 RMK A01 T01940182  RH  095%=      5-min Rain = 0
KFLS 261145Z 16010KT 19/18 A2999 RMK A01 T01940182  RH  095%=      5-min Rain = 0
KFLS 261150Z 16010KT 19/18 A30 RMK A01 T01940182  RH  095%=      5-min Rain = 0
KFLS 261155Z 16010KT 20/18 A30 RMK A01 T01950182  RH  095%=      5-min Rain = 0
KFLS 261200Z 16009KT 20/18 A30 RMK A01 T01950182  RH  095%=      5-min Rain = 0
KFLS 261205Z 16009KT 20/18 A30 RMK A01 T01950182  RH  095%=      5-min Rain = 0
KFLS 261210Z 15009KT 19/18 A30 RMK A01 T01940182  RH  095%=      5-min Rain = 0
KFLS 261215Z 16009KT 19/18 A30 RMK A01 T01940182  RH  095%=      5-min Rain = 0
KFLS 261220Z 16009KT 19/18 A3001 RMK A01 T01940182  RH  095%=      5-min Rain = 0
KFLS 261225Z 16010KT 19/18 A3001 RMK A01 T01940183  RH  095%=      5-min Rain = 0
KFLS 261230Z 16010KT 19/18 A3001 RMK A01 T01940183  RH  095%=      5-min Rain = 0
KFLS 261235Z 15009KT 19/18 A3001 RMK A01 T01940183  RH  096%=      5-min Rain = 0
KFLS 261240Z 16010KT 19/18 A3001 RMK A01 T01940183  RH  096%=      5-min Rain = 0
KFLS 261245Z 16010KT 19/18 A3001 RMK A01 T01940183  RH  096%=      5-min Rain = 0
KFLS 261250Z 15010KT 19/18 A3001 RMK A01 T01940183  RH  096%=      5-min Rain = 0
KFLS 261255Z 15010KT 19/18 A3001 RMK A01 T01940184  RH  096%=      5-min Rain = 0
KFLS 261300Z 16010KT 19/18 A3001 RMK A01 T01940184  RH  096%=      5-min Rain = 0
KFLS 261305Z 15010KT 19/18 A3001 RMK A01 T01940184  RH  097%=      5-min Rain = 0
KFLS 261310Z 15010KT 19/18 A3002 RMK A01 T01940184  RH  097%=      5-min Rain = 0
KFLS 261315Z 15010KT 19/19 A3002 RMK A01 T01940185  RH  097%=      5-min Rain = 0
KFLS 261320Z 15010KT 19/19 A3002 RMK A01 T01940185  RH  097%=      5-min Rain = 0
KFLS 261325Z 15011KT 19/19 A3002 RMK A01 T01940185  RH  097%=      5-min Rain = 0
KFLS 261330Z 15012KT 19/19 A3002 RMK A01 T01940185  RH  097%=      5-min Rain = 0
KFLS 261335Z 14011KT 19/19 A3002 RMK A01 T01940185  RH  097%=      5-min Rain = 0
KFLS 261340Z 14011KT 20/19 A3001 RMK A01 T01950185  RH  097%=      5-min Rain = 0
KFLS 261345Z 14011KT 20/19 A3002 RMK A01 T01950185  RH  096%=      5-min Rain = 0
KFLS 261350Z 14011KT 20/19 A3002 RMK A01 T01950185  RH  096%=      5-min Rain = 0
KFLS 261355Z 14010KT 20/19 A3002 RMK A01 T01960185  RH  096%=      5-min Rain = 0
KFLS 261400Z 14010KT 20/19 A3002 RMK A01 T01950185  RH  097%=      5-min Rain = 0
KFLS 261405Z 15010KT 20/19 A3002 RMK A01 T01950186  RH  097%=      5-min Rain = 0
KFLS 261410Z 15010KT 20/19 A3003 RMK A01 T01950186  RH  097%=      5-min Rain = 0
KFLS 261415Z 14011KT 20/19 A3003 RMK A01 T01950186  RH  097%=      5-min Rain = 0
KFLS 261420Z 15009KT 20/19 A3003 RMK A01 T01950186  RH  097%=      5-min Rain = 0
KFLS 261425Z 15010KT 20/19 A3003 RMK A01 T01950187  RH  098%=      5-min Rain = 0
KFLS 261430Z 15010KT 20/19 A3003 RMK A01 T01960187  RH  098%=      5-min Rain = 0
KFLS 261435Z 15010KT 20/19 A3003 RMK A01 T01960187  RH  097%=      5-min Rain = 0
KFLS 261440Z 15011KT 20/19 A3003 RMK A01 T01950187  RH  097%=      5-min Rain = 0
KFLS 261445Z 16010KT 20/19 A3004 RMK A01 T01950187  RH  097%=      5-min Rain = 0
KFLS 261450Z 15010KT 20/19 A3004 RMK A01 T01950187  RH  097%=      5-min Rain = 0
KFLS 261455Z 15010KT 20/19 A3004 RMK A01 T01950187  RH  098%=      5-min Rain = 0
KFLS 261500Z 15010KT 20/19 A3004 RMK A01 T01950187  RH  098%=      5-min Rain = 0
KFLS 261505Z 15011KT 20/19 A3004 RMK A01 T01950187  RH  098%=      5-min Rain = 0
KFLS 261510Z 15011KT 20/19 A3004 RMK A01 T01960187  RH  098%=      5-min Rain = 0
KFLS 261515Z 15010KT 20/19 A3004 RMK A01 T01960188  RH  097%=      5-min Rain = 0
KFLS 261520Z 15010KT 20/19 A3004 RMK A01 T01970188  RH  097%=      5-min Rain = 0
KFLS 261525Z 15010KT 20/19 A3003 RMK A01 T01970188  RH  097%=      5-min Rain = 0
KFLS 261530Z 15011KT 20/19 A3003 RMK A01 T01970188  RH  097%=      5-min Rain = 0
KFLS 261535Z 15011KT 20/19 A3003 RMK A01 T01970188  RH  097%=      5-min Rain = 0
KFLS 261540Z 15011KT 20/19 A3003 RMK A01 T01970187  RH  096%=      5-min Rain = 0
KFLS 261545Z 15012KT 20/19 A3003 RMK A01 T01970187  RH  096%=      5-min Rain = 0
KFLS 261550Z 15012KT 20/19 A3003 RMK A01 T01950186  RH  097%=      5-min Rain = 0
KFLS 261555Z 15012KT 20/19 A3003 RMK A01 T01950186  RH  097%=      5-min Rain = 0
KFLS 261600Z 15012KT 20/19 A3003 RMK A01 T01960187  RH  097%=      5-min Rain = 0
KFLS 261605Z 15013KT 20/19 A3002 RMK A01 T01950186  RH  097%=      5-min Rain = 0
KFLS 261610Z 15013KT 20/19 A3002 RMK A01 T01950185  RH  096%=      5-min Rain = 0
KFLS 261615Z 15011KT 20/19 A3002 RMK A01 T01960186  RH  096%=      5-min Rain = 0
KFLS 261620Z 15012KT 20/19 A3002 RMK A01 T01960186  RH  096%=      5-min Rain = 0
KFLS 261625Z 15012KT 20/19 A3002 RMK A01 T01960186  RH  096%=      5-min Rain = 0
KFLS 261630Z 15013KT 20/19 A3002 RMK A01 T01960185  RH  096%=      5-min Rain = 0
KFLS 261635Z 16012KT 20/19 A3002 RMK A01 T01970186  RH  096%=      5-min Rain = 0
KFLS 261640Z 15012KT 20/19 A3002 RMK A01 T01980186  RH  095%=      5-min Rain = 0
KFLS 261645Z 15013KT 20/19 A3002 RMK A01 T01990185  RH  094%=      5-min Rain = 0
KFLS 261650Z 15012G17KT 20/19 A3002 RMK A01 T01990185  RH  094%=      5-min Rain = 0
KFLS 261655Z 15012KT 20/19 A3002 RMK A01 T02000185  RH  094%=      5-min Rain = 0
KFLS 261700Z 15012KT 20/18 A3002 RMK A01 T02000184  RH  093%=      5-min Rain = 0
KFLS 261705Z 15012KT 20/19 A3002 RMK A01 T02010185  RH  093%=      5-min Rain = 0
KFLS 261710Z 16011KT 20/19 A3003 RMK A01 T02020185  RH  092%=      5-min Rain = 0
KFLS 261715Z 15013KT 20/19 A3003 RMK A01 T02020185  RH  092%=      5-min Rain = 0
KFLS 261720Z 15012KT 20/19 A3003 RMK A01 T02020185  RH  092%=      5-min Rain = 0
KFLS 261725Z 16012G17KT 20/18 A3003 RMK A01 T02020184  RH  092%=      5-min Rain = 0
KFLS 261730Z 15013KT 20/18 A3002 RMK A01 T02020184  RH  092%=      5-min Rain = 0
KFLS 261735Z 15012KT 20/18 A3002 RMK A01 T02030184  RH  092%=      5-min Rain = 0
KFLS 261740Z 15012KT 20/19 A3002 RMK A01 T02020185  RH  092%=      5-min Rain = 0
KFLS 261745Z 15011KT 20/19 A3002 RMK A01 T02020185  RH  092%=      5-min Rain = 0
KFLS 261750Z 15012KT 20/19 A3002 RMK A01 T02020185  RH  092%=      5-min Rain = 0
KFLS 261755Z 16012KT 20/19 A3002 RMK A01 T02010185  RH  092%=      5-min Rain = 0
KFLS 261800Z 16012G18KT 20/19 A3002 RMK A01 T02030185  RH  092%=      5-min Rain = 0
KFLS 261805Z 15011KT 21/19 A3002 RMK A01 T02050186  RH  091%=      5-min Rain = 0
KFLS 261810Z 15012KT 21/19 A3002 RMK A01 T02050185  RH  091%=      5-min Rain = 0
KFLS 261815Z 15011KT 21/19 A3002 RMK A01 T02050185  RH  091%=      5-min Rain = 0
KFLS 261820Z 16012KT 21/19 A3001 RMK A01 T02070185  RH  089%=      5-min Rain = 0
KFLS 261825Z 16011KT 21/18 A3001 RMK A01 T02080184  RH  088%=      5-min Rain = 0
KFLS 261830Z 16010KT 21/19 A3001 RMK A01 T02080185  RH  089%=      5-min Rain = 0
KFLS 261835Z 15013KT 21/19 A3001 RMK A01 T02090185  RH  088%=      5-min Rain = 0
KFLS 261840Z 15013KT 21/19 A3001 RMK A01 T02100185  RH  087%=      5-min Rain = 0
KFLS 261845Z 15013KT 21/19 A3001 RMK A01 T02100185  RH  087%=      5-min Rain = 0
KFLS 261850Z 15012KT 21/19 A3001 RMK A01 T02100185  RH  087%=      5-min Rain = 0
KFLS 261855Z 15012KT 21/19 A3001 RMK A01 T02110185  RH  088%=      5-min Rain = 0
KFLS 261900Z 16011G16KT 21/19 A3001 RMK A01 T02110185  RH  088%=      5-min Rain = 0
KFLS 261905Z 16013KT 21/18 A3001 RMK A01 T02100184  RH  087%=      5-min Rain = 0
KFLS 261910Z 16011KT 21/18 A3002 RMK A01 T02090184  RH  088%=      5-min Rain = 0
KFLS 261915Z 17011KT 21/18 A3002 RMK A01 T02100184  RH  088%=      5-min Rain = 0
KFLS 261920Z 16012G17KT 21/18 A3002 RMK A01 T02100184  RH  087%=      5-min Rain = 0
KFLS 261925Z 16011KT 21/18 A3002 RMK A01 T02090184  RH  088%=      5-min Rain = 0
KFLS 261930Z 16010KT 21/19 A3002 RMK A01 T02090185  RH  089%=      5-min Rain = 0
KFLS 261935Z 16011G16KT 21/19 A3002 RMK A01 T02080185  RH  089%=      5-min Rain = 0
KFLS 261940Z 17011KT 21/19 A3003 RMK A01 T02080185  RH  089%=      5-min Rain = 0
KFLS 261945Z 17012KT 21/19 A3003 RMK A01 T02080186  RH  090%=      5-min Rain = 0
KFLS 261950Z 17012KT 21/19 A3003 RMK A01 T02080186  RH  089%=      5-min Rain = 0
KFLS 261955Z 17012KT 21/19 A3003 RMK A01 T02080186  RH  090%=      5-min Rain = 0
KFLS 262000Z 18011G16KT 21/19 A3003 RMK A01 T02060187  RH  091%=      5-min Rain = 0
KFLS 262005Z 17012KT 21/19 A3003 RMK A01 T02060188  RH  092%=      5-min Rain = 0
KFLS 262010Z 17011G17KT 21/19 A3002 RMK A01 T02070189  RH  092%=      5-min Rain = 0
KFLS 262015Z 17013G18KT 21/19 A3002 RMK A01 T02070189  RH  092%=      5-min Rain = 0
KFLS 262020Z 16012KT 21/19 A3002 RMK A01 T02080193  RH  093%=      5-min Rain = 0
KFLS 262025Z 16011KT 21/20 A3002 RMK A01 T02110196  RH  094%=      5-min Rain = 0
KFLS 262030Z 15012KT 21/20 A3001 RMK A01 T02120197  RH  093%=      5-min Rain = 0
KFLS 262035Z 15011G17KT 21/20 A3001 RMK A01 T02120197  RH  093%=      5-min Rain = 0
KFLS 262040Z 15012KT 21/19 A3001 RMK A01 T02120194  RH  092%=      5-min Rain = 0
KFLS 262045Z 15015KT 21/19 A30 RMK A01 T02120193  RH  091%=      5-min Rain = 0
KFLS 262050Z 15016KT 21/19 A30 RMK A01 T02130192  RH  090%=      5-min Rain = 0
KFLS 262055Z 15014G20KT 22/19 A30 RMK A01 T02150194  RH  090%=      5-min Rain = 0
KFLS 262100Z 14015KT 22/19 A2999 RMK A01 T02180194  RH  089%=      5-min Rain = 0
KFLS 262105Z 15014G19KT 22/20 A2999 RMK A01 T02210196  RH  088%=      5-min Rain = 0
KFLS 262110Z 14016KT 22/19 A2998 RMK A01 T02190194  RH  088%=      5-min Rain = 0
KFLS 262115Z 14014G20KT 22/20 A2998 RMK A01 T02230196  RH  087%=      5-min Rain = 0
KFLS 262120Z 14017KT 22/19 A2998 RMK A01 T02200193  RH  087%=      5-min Rain = 0
KFLS 262125Z 15017KT 22/19 A2998 RMK A01 T02200193  RH  087%=      5-min Rain = 0
KFLS 262130Z 15018G23KT 22/19 A2998 RMK A01 T02190192  RH  087%=      5-min Rain = 0
KFLS 262135Z 15017KT 22/19 A2997 RMK A01 T02190192  RH  087%=      5-min Rain = 0
KFLS 262140Z 15016G22KT 22/19 A2997 RMK A01 T02200193  RH  087%=      5-min Rain = 0
KFLS 262145Z 14018G23KT 22/19 A2996 RMK A01 T02200192  RH  087%=      5-min Rain = 0
KFLS 262150Z 14017G22KT 22/19 A2995 RMK A01 T02190192  RH  087%=      5-min Rain = 0
KFLS 262155Z 14017G22KT 22/19 A2995 RMK A01 T02190193  RH  087%=      5-min Rain = 0
KFLS 262200Z 14016KT 22/19 A2995 RMK A01 T02180193  RH  088%=      5-min Rain = 0
KFLS 262205Z 14018G23KT 22/19 A2994 RMK A01 T02180193  RH  088%=      5-min Rain = 0
KFLS 262210Z 14016G21KT 22/19 A2994 RMK A01 T02190194  RH  088%=      5-min Rain = 0
KFLS 262215Z 14018G23KT 22/19 A2994 RMK A01 T02180193  RH  088%=      5-min Rain = 0
KFLS 262220Z 13019G26KT 22/19 A2993 RMK A01 T02180193  RH  088%=      5-min Rain = 0
KFLS 262225Z 13020G26KT 22/19 A2993 RMK A01 T02180192  RH  087%=      5-min Rain = 0
KFLS 262230Z 14018G24KT 22/19 A2993 RMK A01 T02170192  RH  088%=      5-min Rain = 0
KFLS 262235Z 14017G23KT 22/19 A2993 RMK A01 T02170192  RH  088%=      5-min Rain = 0
KFLS 262240Z 13017G24KT 22/19 A2992 RMK A01 T02160192  RH  088%=      5-min Rain = 0
KFLS 262245Z 13016KT 22/19 A2992 RMK A01 T02180193  RH  088%=      5-min Rain = 0
KFLS 262250Z 13017G24KT 22/19 A2992 RMK A01 T02200193  RH  087%=      5-min Rain = 0
KFLS 262255Z 13016G23KT 22/19 A2992 RMK A01 T02220193  RH  086%=      5-min Rain = 0
KFLS 262300Z 15014G19KT 22/19 A2993 RMK A01 T02230193  RH  085%=      5-min Rain = 0
KFLS 262305Z 15016KT 22/19 A2993 RMK A01 T02230192  RH  085%=      5-min Rain = 0
KFLS 262310Z 16014KT 22/19 A2994 RMK A01 T02230191  RH  085%=      5-min Rain = 0
KFLS 262315Z 15014KT 22/19 A2993 RMK A01 T02210191  RH  085%=      5-min Rain = 0
KFLS 262320Z 15013G18KT 22/19 A2992 RMK A01 T02210191  RH  085%=      5-min Rain = 0
KFLS 262325Z 14014KT 22/19 A2991 RMK A01 T02220192  RH  085%=      5-min Rain = 0
KFLS 262330Z 13016KT 22/19 A299 RMK A01 T02240192  RH  084%=      5-min Rain = 0
KFLS 262335Z 13018KT 23/19 A2989 RMK A01 T02270192  RH  083%=      5-min Rain = 0
KFLS 262340Z 13018G23KT 23/19 A2989 RMK A01 T02300194  RH  082%=      5-min Rain = 0
KFLS 262345Z 13016G23KT 23/20 A2989 RMK A01 T02320195  RH  082%=      5-min Rain = 0
KFLS 262350Z 13017G23KT 23/19 A2989 RMK A01 T02330194  RH  081%=      5-min Rain = 0
KFLS 262355Z 13018G24KT 23/20 A299 RMK A01 T02340195  RH  081%=      5-min Rain = 0
KFLS 270000Z 14016G21KT 24/20 A299 RMK A01 T02370197  RH  081%=      5-min Rain = 0
KFLS 270005Z 14018G23KT 23/20 A299 RMK A01 T02320195  RH  082%=      5-min Rain = 0
KFLS 270010Z 14018G23KT 23/19 A2989 RMK A01 T02290194  RH  083%=      5-min Rain = 0
KFLS 270015Z 14018G23KT 23/19 A299 RMK A01 T02270194  RH  084%=      5-min Rain = 0
KFLS 270020Z 14018KT 23/19 A2989 RMK A01 T02250194  RH  084%=      5-min Rain = 0
KFLS 270025Z 14018G23KT 23/19 A2989 RMK A01 T02270194  RH  084%=      5-min Rain = 0
KFLS 270030Z 14017G22KT 23/19 A2988 RMK A01 T02270194  RH  084%=      5-min Rain = 0
KFLS 270035Z 14018KT 23/19 A2987 RMK A01 T02280193  RH  083%=      5-min Rain = 0
KFLS 270040Z 14019G25KT 23/19 A2987 RMK A01 T02290192  RH  082%=      5-min Rain = 0
KFLS 270045Z 15020G26KT 23/19 A2988 RMK A01 T02280190  RH  081%=      5-min Rain = 0
KFLS 270050Z 15017G23KT 23/19 A2988 RMK A01 T02260191  RH  083%=      5-min Rain = 0
KFLS 270055Z 15016G21KT 23/19 A2988 RMK A01 T02250192  RH  084%=      5-min Rain = 0
KFLS 270100Z 15018G24KT 22/19 A2988 RMK A01 T02240191  RH  084%=      5-min Rain = 0
KFLS 270105Z 15016KT 22/19 A2988 RMK A01 T02230190  RH  084%=      5-min Rain = 0
KFLS 270110Z 16015G21KT 22/19 A2988 RMK A01 T02210190  RH  085%=      5-min Rain = 0
KFLS 270115Z 16016G21KT 22/19 A2988 RMK A01 T02200190  RH  085%=      5-min Rain = 0
KFLS 270120Z 16017G24KT 22/19 A2987 RMK A01 T02190189  RH  085%=      5-min Rain = 0
KFLS 270125Z 15017G22KT 22/19 A2987 RMK A01 T02190189  RH  085%=      5-min Rain = 0
KFLS 270130Z 15017KT 22/19 A2987 RMK A01 T02190189  RH  085%=      5-min Rain = 0
KFLS 270135Z 15015G20KT 22/19 A2988 RMK A01 T02180188  RH  086%=      5-min Rain = 0
KFLS 270140Z 15015G20KT 22/19 A2988 RMK A01 T02170188  RH  086%=      5-min Rain = 0
KFLS 270145Z 15014KT 22/19 A2988 RMK A01 T02150187  RH  086%=      5-min Rain = 0
KFLS 270150Z 15013G18KT 21/19 A2988 RMK A01 T02140187  RH  087%=      5-min Rain = 0
KFLS 270155Z 15014G20KT 21/19 A2987 RMK A01 T02140187  RH  087%=      5-min Rain = 0
KFLS 270200Z 15015G20KT 21/19 A2987 RMK A01 T02130187  RH  087%=      5-min Rain = 0
KFLS 270205Z 15014KT 21/19 A2987 RMK A01 T02130187  RH  088%=      5-min Rain = 0
KFLS 270210Z 15014G19KT 21/19 A2987 RMK A01 T02120187  RH  088%=      5-min Rain = 0
KFLS 270215Z 15014KT 21/19 A2987 RMK A01 T02110187  RH  088%=      5-min Rain = 0
KFLS 270220Z 15012KT 21/19 A2989 RMK A01 T02110187  RH  088%=      5-min Rain = 0
KFLS 270225Z 15011KT 21/19 A2989 RMK A01 T02100187  RH  089%=      5-min Rain = 0
KFLS 270230Z 15011KT 21/19 A299 RMK A01 T02090187  RH  089%=      5-min Rain = 0
KFLS 270235Z 15011KT 21/19 A299 RMK A01 T02090187  RH  089%=      5-min Rain = 0
KFLS 270240Z 15010KT 21/19 A299 RMK A01 T02080186  RH  090%=      5-min Rain = 0
KFLS 270245Z 15010KT 21/19 A299 RMK A01 T02070186  RH  090%=      5-min Rain = 0
KFLS 270250Z 15011KT 21/19 A299 RMK A01 T02060186  RH  090%=      5-min Rain = 0
KFLS 270255Z 15010KT 21/19 A299 RMK A01 T02050185  RH  091%=      5-min Rain = 0
KFLS 270300Z 15011KT 21/19 A299 RMK A01 T02050185  RH  090%=      5-min Rain = 0
KFLS 270305Z 15010KT 21/19 A2991 RMK A01 T02050185  RH  090%=      5-min Rain = 0
KFLS 270310Z 15010KT 21/18 A2991 RMK A01 T02050184  RH  090%=      5-min Rain = 0
KFLS 270315Z 15009KT 20/18 A2991 RMK A01 T02040184  RH  090%=      5-min Rain = 0
KFLS 270320Z 15009KT 20/18 A299 RMK A01 T02040183  RH  090%=      5-min Rain = 0
KFLS 270325Z 15009KT 20/18 A299 RMK A01 T02030183  RH  090%=      5-min Rain = 0
KFLS 270330Z 14009KT 20/18 A299 RMK A01 T02020182  RH  090%=      5-min Rain = 0
KFLS 270335Z 14010KT 20/18 A299 RMK A01 T02020182  RH  090%=      5-min Rain = 0
KFLS 270340Z 14010KT 20/18 A299 RMK A01 T02020181  RH  090%=      5-min Rain = 0
KFLS 270345Z 14011KT 20/18 A299 RMK A01 T02030181  RH  089%=      5-min Rain = 0
KFLS 270350Z 15010KT 20/18 A299 RMK A01 T02040181  RH  089%=      5-min Rain = 0
KFLS 270355Z 14011KT 20/18 A299 RMK A01 T02030180  RH  089%=      5-min Rain = 0
KFLS 270400Z 15012KT 20/18 A299 RMK A01 T02030180  RH  089%=      5-min Rain = 0
KFLS 270405Z 15012KT 20/18 A2989 RMK A01 T02030180  RH  089%=      5-min Rain = 0
KFLS 270410Z 14012G17KT 20/18 A2989 RMK A01 T02020179  RH  089%=      5-min Rain = 0
KFLS 270415Z 15012KT 20/18 A2989 RMK A01 T02020179  RH  089%=      5-min Rain = 0
KFLS 270420Z 15013KT 20/18 A2989 RMK A01 T02020178  RH  088%=      5-min Rain = 0
KFLS 270425Z 15012KT 20/18 A2989 RMK A01 T02010178  RH  089%=      5-min Rain = 0
KFLS 270430Z 15011G16KT 20/18 A2989 RMK A01 T02000177  RH  089%=      5-min Rain = 0
KFLS 270435Z 15012G17KT 20/18 A2989 RMK A01 T02000177  RH  089%=      5-min Rain = 0
KFLS 270440Z 15012KT 20/18 A2989 RMK A01 T02000176  RH  088%=      5-min Rain = 0
KFLS 270445Z 15011KT 20/18 A2989 RMK A01 T01990176  RH  089%=      5-min Rain = 0
KFLS 270450Z 15011KT 20/18 A2988 RMK A01 T01990176  RH  089%=      5-min Rain = 0
KFLS 270455Z 15011KT 20/18 A2988 RMK A01 T01980175  RH  089%=      5-min Rain = 0

Page generated in 0.0097 seconds.